Time;durP1;ratioP1;P1;durP2;ratioP2;P2;SDS_P1;SDS_P2;PMS_P1;PMS_P2;Temp;Humidity;BMP_temperature;BMP_pressure;BME280_temperature;BME280_humidity;BME280_pressure;Samples;Min_cycle;Max_cycle;Signal;HPM_P1;HPM_P2
2022/07/12 00:01:07;;;;;;;;;;;;;;;;;;4974995;28;8401;-85
2022/07/12 00:03:32;;;;;;;;;;;;;;;;;;4974742;28;7483;-85
2022/07/12 00:05:58;;;;;;;;;;;;;;;;;;4974731;28;8311;-85
2022/07/12 00:08:24;;;;;;;;;;;;;;;;;;4974713;28;6996;-83
2022/07/12 00:10:50;;;;;;;;;;;;;;;;;;4974631;28;7347;-86
2022/07/12 00:13:16;;;;;;;;;;;;;;;;;;4974770;28;7027;-85
2022/07/12 00:15:43;;;;;;;;;;;;;;;;;;4974752;28;7102;-85
2022/07/12 00:18:09;;;;;;;;;;;;;;;;;;4975294;28;8696;-84
2022/07/12 00:20:36;;;;;;;;;;;;;;;;;;4974831;28;7386;-85
2022/07/12 00:23:02;;;;;;;;;;;;;;;;;;4975578;28;8383;-84
2022/07/12 00:25:27;;;;;;;;;;;;;;;;;;4974609;28;8403;-84
2022/07/12 00:27:53;;;;;;;;;;;;;;;;;;4974720;28;8383;-85
2022/07/12 00:30:19;;;;;;;;;;;;;;;;;;4974617;28;7139;-84
2022/07/12 00:32:47;;;;;;;;;;;;;;;;;;4974615;28;7027;-84
2022/07/12 00:35:14;;;;;;;;;;;;;;;;;;4974470;28;7016;-85
2022/07/12 00:37:39;;;;;;;;;;;;;;;;;;4975294;28;7356;-86
2022/07/12 00:40:10;;;;;;;;;;;;;;;;;;4974610;28;8455;-85
2022/07/12 00:42:35;;;;;;;;;;;;;;;;;;4974456;28;8705;-85
2022/07/12 00:45:03;;;;;;;;;;;;;;;;;;4974266;28;8539;-85
2022/07/12 00:47:48;;;;;;;;;;;;;;;;;;4974537;28;8425;-85
2022/07/12 00:50:16;;;;;;;;;;;;;;;;;;4974168;28;8388;-85
2022/07/12 00:52:43;;;;;;;;;;;;;;;;;;4974529;28;7040;-84
2022/07/12 00:55:10;;;;;;;;;;;;;;;;;;4974575;28;8493;-85
2022/07/12 00:57:36;;;;;;;;;;;;;;;;;;4974323;28;8442;-84
2022/07/12 01:00:05;;;;;;;;;;;;;;;;;;4974332;28;7026;-85
2022/07/12 01:02:31;;;;;;;;;;;;;;;;;;4974647;28;8841;-84
2022/07/12 01:04:58;;;;;;;;;;;;;;;;;;4974411;28;8414;-83
2022/07/12 01:07:26;;;;;;;;;;;;;;;;;;4974455;28;7153;-84
2022/07/12 01:09:53;;;;;;;;;;;;;;;;;;4974680;28;8455;-85
2022/07/12 01:12:20;;;;;;;;;;;;;;;;;;4974124;28;7225;-85
2022/07/12 01:14:46;;;;;;;;;;;;;;;;;;4975095;28;7353;-85
2022/07/12 01:17:13;;;;;;;;;;;;;;;;;;4977992;28;8378;-85
2022/07/12 01:19:38;;;;;;;;;;;;;;;;;;4977607;28;8828;-84
2022/07/12 01:22:08;;;;;;;;;;;;;;;;;;4977792;28;8379;-85
2022/07/12 01:24:34;;;;;;;;;;;;;;;;;;4977374;28;8616;-84
2022/07/12 01:27:00;;;;;;;;;;;;;;;;;;4977463;28;8695;-84
2022/07/12 01:29:26;;;;;;;;;;;;;;;;;;4978063;28;8628;-85
2022/07/12 01:31:52;;;;;;;;;;;;;;;;;;4977973;28;7022;-83
2022/07/12 01:34:18;;;;;;;;;;;;;;;;;;4977246;28;7376;-86
2022/07/12 01:36:44;;;;;;;;;;;;;;;;;;4977606;28;8594;-85
2022/07/12 01:39:09;;;;;;;;;;;;;;;;;;4977523;28;8520;-85
2022/07/12 01:41:36;;;;;;;;;;;;;;;;;;4977257;28;8590;-85
2022/07/12 01:44:02;;;;;;;;;;;;;;;;;;4977408;28;8440;-85
2022/07/12 01:46:27;;;;;;;;;;;;;;;;;;4977204;28;8348;-84
2022/07/12 01:48:52;;;;;;;;;;;;;;;;;;4977087;28;8486;-84
2022/07/12 01:51:18;;;;;;;;;;;;;;;;;;4976971;28;8572;-83
2022/07/12 01:53:43;;;;;;;;;;;;;;;;;;4976667;28;8400;-84
2022/07/12 01:56:09;;;;;;;;;;;;;;;;;;4976905;28;8735;-84
2022/07/12 01:58:34;;;;;;;;;;;;;;;;;;4977426;28;6806;-84
2022/07/12 02:01:00;;;;;;;;;;;;;;;;;;4975847;28;7126;-84
2022/07/12 02:03:25;;;;;;;;;;;;;;;;;;4977289;28;8457;-84
2022/07/12 02:05:51;;;;;;;;;;;;;;;;;;4977333;28;8421;-83
2022/07/12 02:08:16;;;;;;;;;;;;;;;;;;4977263;28;7010;-86
2022/07/12 02:10:45;;;;;;;;;;;;;;;;;;4976816;28;8239;-84
2022/07/12 02:13:10;;;;;;;;;;;;;;;;;;4977227;28;8742;-85
2022/07/12 02:15:36;;;;;;;;;;;;;;;;;;4976445;28;8478;-85
2022/07/12 02:18:01;;;;;;;;;;;;;;;;;;4976984;28;8469;-84
2022/07/12 02:20:27;;;;;;;;;;;;;;;;;;4976514;28;7722;-85
2022/07/12 02:22:52;;;;;;;;;;;;;;;;;;4976761;28;8386;-84
2022/07/12 02:25:18;;;;;;;;;;;;;;;;;;4976420;28;7074;-84
2022/07/12 02:27:43;;;;;;;;;;;;;;;;;;4975325;28;7167;-84
2022/07/12 02:30:10;;;;;;;;;;;;;;;;;;4976188;28;8365;-84
2022/07/12 02:32:36;;;;;;;;;;;;;;;;;;4976815;28;7042;-84
2022/07/12 02:35:02;;;;;;;;;;;;;;;;;;4976432;28;7143;-84
2022/07/12 02:37:28;;;;;;;;;;;;;;;;;;4976607;28;7120;-84
2022/07/12 02:40:52;;;;;;;;;;;;;;;;;;4976426;28;7036;-84
2022/07/12 02:42:39;;;;;;;;;;;;;;;;;;4976840;28;6963;-85
2022/07/12 02:45:05;;;;;;;;;;;;;;;;;;4975338;28;7151;-84
2022/07/12 02:47:31;;;;;;;;;;;;;;;;;;4976233;28;8787;-85
2022/07/12 02:49:58;;;;;;;;;;;;;;;;;;4975758;28;9011;-85
2022/07/12 02:52:23;;;;;;;;;;;;;;;;;;4976247;28;8425;-84
2022/07/12 02:54:50;;;;;;;;;;;;;;;;;;4975887;28;7023;-88
2022/07/12 02:57:15;;;;;;;;;;;;;;;;;;4975793;28;8273;-84
2022/07/12 02:59:41;;;;;;;;;;;;;;;;;;4976046;28;8691;-84
2022/07/12 03:02:12;;;;;;;;;;;;;;;;;;4975583;28;8658;-86
2022/07/12 03:04:38;;;;;;;;;;;;;;;;;;4976023;28;8502;-85
2022/07/12 03:07:03;;;;;;;;;;;;;;;;;;4975980;28;9374;-83
2022/07/12 03:09:30;;;;;;;;;;;;;;;;;;4975320;28;7966;-84
2022/07/12 03:11:55;;;;;;;;;;;;;;;;;;4976459;28;7242;-86
2022/07/12 03:14:21;;;;;;;;;;;;;;;;;;4976638;28;8391;-85
2022/07/12 03:16:47;;;;;;;;;;;;;;;;;;4975999;28;8409;-85
2022/07/12 03:19:12;;;;;;;;;;;;;;;;;;4975784;28;8664;-85
2022/07/12 03:21:37;;;;;;;;;;;;;;;;;;4975351;28;7077;-86
2022/07/12 03:24:03;;;;;;;;;;;;;;;;;;4975230;28;7220;-82
2022/07/12 03:26:28;;;;;;;;;;;;;;;;;;4975192;28;8330;-85
2022/07/12 03:28:54;;;;;;;;;;;;;;;;;;4975662;28;8490;-86
2022/07/12 03:31:19;;;;;;;;;;;;;;;;;;4975499;28;8494;-84
2022/07/12 03:33:45;;;;;;;;;;;;;;;;;;4975871;28;7018;-84
2022/07/12 03:36:10;;;;;;;;;;;;;;;;;;4975139;28;8550;-84
2022/07/12 03:38:39;;;;;;;;;;;;;;;;;;4974866;28;8723;-84
2022/07/12 03:41:05;;;;;;;;;;;;;;;;;;4974888;28;7027;-85
2022/07/12 03:43:30;;;;;;;;;;;;;;;;;;4975593;28;8493;-84
2022/07/12 03:45:56;;;;;;;;;;;;;;;;;;4974967;28;7573;-84
2022/07/12 03:48:21;;;;;;;;;;;;;;;;;;4975427;28;7113;-87
2022/07/12 03:50:47;;;;;;;;;;;;;;;;;;4974854;28;8414;-84
2022/07/12 03:53:13;;;;;;;;;;;;;;;;;;4975217;28;7345;-85
2022/07/12 03:55:39;;;;;;;;;;;;;;;;;;4974650;28;7059;-85
2022/07/12 03:58:04;;;;;;;;;;;;;;;;;;4974931;28;8291;-84
2022/07/12 04:00:30;;;;;;;;;;;;;;;;;;4976707;28;7092;-85
2022/07/12 04:02:55;;;;;;;;;;;;;;;;;;4975063;28;7305;-85
2022/07/12 04:05:25;;;;;;;;;;;;;;;;;;4976313;28;7155;-85
2022/07/12 04:07:50;;;;;;;;;;;;;;;;;;4975206;28;7363;-85
2022/07/12 04:10:16;;;;;;;;;;;;;;;;;;4975161;28;8408;-84
2022/07/12 04:12:41;;;;;;;;;;;;;;;;;;4975430;28;7098;-85
2022/07/12 04:15:07;;;;;;;;;;;;;;;;;;4974992;28;8380;-83
2022/07/12 04:17:33;;;;;;;;;;;;;;;;;;4974551;28;7399;-84
2022/07/12 04:19:59;;;;;;;;;;;;;;;;;;4974817;28;8433;-85
2022/07/12 04:22:24;;;;;;;;;;;;;;;;;;4975227;28;8867;-84
2022/07/12 04:24:50;;;;;;;;;;;;;;;;;;4974260;28;7131;-85
2022/07/12 04:27:15;;;;;;;;;;;;;;;;;;4975112;28;7303;-85
2022/07/12 04:29:41;;;;;;;;;;;;;;;;;;4974705;28;7022;-84
2022/07/12 04:32:07;;;;;;;;;;;;;;;;;;4974924;28;7163;-85
2022/07/12 04:34:33;;;;;;;;;;;;;;;;;;4974411;28;8372;-85
2022/07/12 04:36:58;;;;;;;;;;;;;;;;;;4974481;28;8843;-83
2022/07/12 04:39:24;;;;;;;;;;;;;;;;;;4974451;28;8603;-82
2022/07/12 04:41:49;;;;;;;;;;;;;;;;;;4974786;28;8713;-84
2022/07/12 04:44:15;;;;;;;;;;;;;;;;;;4974680;28;8452;-85
2022/07/12 04:46:40;;;;;;;;;;;;;;;;;;4960315;28;8449;-85
2022/07/12 04:49:06;;;;;;;;;;;;;;;;;;4955433;28;7162;-85
2022/07/12 04:51:32;;;;;;;;;;;;;;;;;;4958603;28;7090;-84
2022/07/12 04:53:58;;;;;;;;;;;;;;;;;;4958714;28;8293;-86
2022/07/12 04:56:23;;;;;;;;;;;;;;;;;;4959542;28;7085;-83
2022/07/12 04:58:49;;;;;;;;;;;;;;;;;;4959102;28;8440;-85
2022/07/12 05:01:15;;;;;;;;;;;;;;;;;;4959277;28;8408;-85
2022/07/12 05:03:41;;;;;;;;;;;;;;;;;;4958993;28;7280;-84
2022/07/12 05:06:06;;;;;;;;;;;;;;;;;;4958614;28;8574;-83
2022/07/12 05:08:32;;;;;;;;;;;;;;;;;;4958502;28;8695;-85
2022/07/12 05:10:57;;;;;;;;;;;;;;;;;;4958363;28;8711;-85
2022/07/12 05:13:23;;;;;;;;;;;;;;;;;;4958981;28;7463;-82
2022/07/12 05:15:48;;;;;;;;;;;;;;;;;;4976053;28;7158;-85
2022/07/12 05:18:14;;;;;;;;;;;;;;;;;;4942428;28;8487;-84
2022/07/12 05:20:39;;;;;;;;;;;;;;;;;;4957785;28;6986;-84
2022/07/12 05:23:05;;;;;;;;;;;;;;;;;;4957540;28;8372;-84
2022/07/12 05:25:30;;;;;;;;;;;;;;;;;;4957620;28;7016;-84
2022/07/12 05:27:55;;;;;;;;;;;;;;;;;;4957124;28;7303;-83
2022/07/12 05:30:21;;;;;;;;;;;;;;;;;;4957309;28;8374;-85
2022/07/12 05:32:47;;;;;;;;;;;;;;;;;;4957301;28;8486;-85
2022/07/12 05:35:12;;;;;;;;;;;;;;;;;;4957036;28;8632;-85
2022/07/12 05:37:37;;;;;;;;;;;;;;;;;;4957495;28;7041;-85
2022/07/12 05:40:03;;;;;;;;;;;;;;;;;;4957246;28;8497;-81
2022/07/12 05:42:29;;;;;;;;;;;;;;;;;;4956525;28;8861;-82
2022/07/12 05:44:54;;;;;;;;;;;;;;;;;;4956958;28;8402;-81
2022/07/12 05:47:19;;;;;;;;;;;;;;;;;;4977083;28;8251;-81
2022/07/12 05:49:45;;;;;;;;;;;;;;;;;;4961375;28;9339;-85
2022/07/12 05:54:55;;;;;;;;;;;;;;;;;;4978201;28;7026;-84
2022/07/12 05:57:21;;;;;;;;;;;;;;;;;;4961607;28;9116;-84
2022/07/12 05:59:46;;;;;;;;;;;;;;;;;;4960904;28;8425;-84
2022/07/12 06:02:12;;;;;;;;;;;;;;;;;;4961130;28;7009;-85
2022/07/12 06:04:37;;;;;;;;;;;;;;;;;;4960514;28;9329;-84
2022/07/12 06:07:03;;;;;;;;;;;;;;;;;;4961640;28;8420;-84
2022/07/12 06:09:29;;;;;;;;;;;;;;;;;;4960750;28;9718;-84
2022/07/12 06:11:55;;;;;;;;;;;;;;;;;;4960893;28;7129;-82
2022/07/12 06:14:20;;;;;;;;;;;;;;;;;;4959314;28;8430;-84
2022/07/12 06:16:45;;;;;;;;;;;;;;;;;;4961005;28;7405;-86
2022/07/12 06:19:11;;;;;;;;;;;;;;;;;;4960255;28;8510;-86
2022/07/12 06:21:36;;;;;;;;;;;;;;;;;;4960739;28;7016;-85
2022/07/12 06:24:02;;;;;;;;;;;;;;;;;;4960375;28;7115;-86
2022/07/12 06:26:27;;;;;;;;;;;;;;;;;;4960536;28;7034;-85
2022/07/12 06:28:53;;;;;;;;;;;;;;;;;;4959791;28;7139;-87
2022/07/12 06:31:18;;;;;;;;;;;;;;;;;;4960119;28;7050;-85
2022/07/12 06:33:44;;;;;;;;;;;;;;;;;;4960407;28;8950;-86
2022/07/12 06:36:09;;;;;;;;;;;;;;;;;;4960119;28;8484;-86
2022/07/12 06:38:35;;;;;;;;;;;;;;;;;;4959679;28;8321;-87
2022/07/12 06:41:00;;;;;;;;;;;;;;;;;;4957655;28;7216;-84
2022/07/12 06:43:26;;;;;;;;;;;;;;;;;;4970159;28;8422;-86
2022/07/12 06:45:52;;;;;;;;;;;;;;;;;;4973449;28;6895;-87
2022/07/12 06:48:18;;;;;;;;;;;;;;;;;;4976075;28;8446;-86
2022/07/12 06:50:44;;;;;;;;;;;;;;;;;;4976280;28;8585;-84
2022/07/12 06:53:13;;;;;;;;;;;;;;;;;;4976131;28;8664;-86
2022/07/12 06:55:39;;;;;;;;;;;;;;;;;;4976150;28;7188;-87
2022/07/12 06:58:04;;;;;;;;;;;;;;;;;;4975739;28;7239;-86
2022/07/12 07:00:31;;;;;;;;;;;;;;;;;;4975716;28;7073;-87
2022/07/12 07:02:56;;;;;;;;;;;;;;;;;;4975803;28;8684;-87
2022/07/12 07:05:22;;;;;;;;;;;;;;;;;;4976053;28;8476;-86
2022/07/12 07:07:47;;;;;;;;;;;;;;;;;;4975712;28;7337;-87
2022/07/12 07:10:14;;;;;;;;;;;;;;;;;;4974926;28;8915;-86
2022/07/12 07:12:39;;;;;;;;;;;;;;;;;;4973510;28;6856;-86
2022/07/12 07:15:05;;;;;;;;;;;;;;;;;;4973476;28;8818;-85
2022/07/12 07:17:30;;;;;;;;;;;;;;;;;;4972834;28;8340;-87
2022/07/12 07:19:56;;;;;;;;;;;;;;;;;;4973803;28;9214;-86
2022/07/12 07:22:21;;;;;;;;;;;;;;;;;;4973511;28;7084;-84
2022/07/12 07:24:47;;;;;;;;;;;;;;;;;;4970120;28;7457;-85
2022/07/12 07:27:12;;;;;;;;;;;;;;;;;;4973222;28;7040;-82
2022/07/12 07:32:22;;;;;;;;;;;;;;;;;;4974569;28;6946;-86
2022/07/12 07:34:47;;;;;;;;;;;;;;;;;;4989516;28;8408;-86
2022/07/12 07:37:13;;;;;;;;;;;;;;;;;;4971798;28;8339;-87
2022/07/12 07:39:39;;;;;;;;;;;;;;;;;;4972089;28;9097;-85
2022/07/12 07:42:05;;;;;;;;;;;;;;;;;;4955263;28;7155;-87
2022/07/12 07:44:30;;;;;;;;;;;;;;;;;;4973392;28;8351;-84
2022/07/12 07:46:56;;;;;;;;;;;;;;;;;;4971336;28;7156;-86
2022/07/12 07:49:25;;;;;;;;;;;;;;;;;;4974749;28;8876;-85
2022/07/12 07:51:50;;;;;;;;;;;;;;;;;;4977862;28;7222;-86
2022/07/12 07:54:16;;;;;;;;;;;;;;;;;;4977584;28;8765;-85
2022/07/12 07:56:44;;;;;;;;;;;;;;;;;;4983542;28;8437;-86
2022/07/12 07:59:10;;;;;;;;;;;;;;;;;;4974249;28;8364;-83
2022/07/12 08:01:53;;;;;;;;;;;;;;;;;;4958083;28;8399;-86
2022/07/12 08:04:20;;;;;;;;;;;;;;;;;;4977421;28;7036;-86
2022/07/12 08:06:49;;;;;;;;;;;;;;;;;;4957624;28;8765;-87
2022/07/12 08:09:15;;;;;;;;;;;;;;;;;;4973868;28;6910;-86
2022/07/12 08:11:41;;;;;;;;;;;;;;;;;;4956743;28;8459;-88
2022/07/12 08:14:07;;;;;;;;;;;;;;;;;;4973395;28;8840;-86
2022/07/12 08:16:33;;;;;;;;;;;;;;;;;;4973040;28;7158;-86
2022/07/12 08:18:58;;;;;;;;;;;;;;;;;;4967200;28;8392;-84
2022/07/12 08:21:24;;;;;;;;;;;;;;;;;;4972996;28;9051;-85
2022/07/12 08:23:50;;;;;;;;;;;;;;;;;;4973567;28;8425;-84
2022/07/12 08:26:15;;;;;;;;;;;;;;;;;;4976048;28;8602;-88
2022/07/12 08:28:41;;;;;;;;;;;;;;;;;;4976833;28;8523;-88
2022/07/12 08:31:07;;;;;;;;;;;;;;;;;;4977040;28;7073;-90
2022/07/12 08:33:33;;;;;;;;;;;;;;;;;;4976434;28;8453;-84
2022/07/12 08:35:58;;;;;;;;;;;;;;;;;;4976194;28;8466;-86
2022/07/12 08:38:24;;;;;;;;;;;;;;;;;;4977356;28;7279;-86
2022/07/12 08:40:49;;;;;;;;;;;;;;;;;;4976850;28;8418;-87
2022/07/12 08:43:15;;;;;;;;;;;;;;;;;;4975488;28;8659;-87
2022/07/12 08:45:40;;;;;;;;;;;;;;;;;;4976157;28;9594;-85
2022/07/12 08:48:07;;;;;;;;;;;;;;;;;;4959158;28;7983;-82
2022/07/12 08:50:33;;;;;;;;;;;;;;;;;;4961388;28;8389;-85
2022/07/12 08:52:59;;;;;;;;;;;;;;;;;;4961416;28;8580;-84
2022/07/12 08:55:30;;;;;;;;;;;;;;;;;;4962094;28;8794;-80
2022/07/12 08:57:59;;;;;;;;;;;;;;;;;;4962117;28;7064;-85
2022/07/12 09:00:26;;;;;;;;;;;;;;;;;;4960684;28;6870;-86
2022/07/12 09:02:56;;;;;;;;;;;;;;;;;;4960788;28;8644;-83
2022/07/12 09:05:44;;;;;;;;;;;;;;;;;;4960435;28;8472;-86
2022/07/12 09:08:10;;;;;;;;;;;;;;;;;;4959929;28;8435;-85
2022/07/12 09:10:51;;;;;;;;;;;;;;;;;;4958683;28;8548;-86
2022/07/12 09:13:17;;;;;;;;;;;;;;;;;;4959919;28;7135;-84
2022/07/12 09:15:43;;;;;;;;;;;;;;;;;;4959828;28;8529;-86
2022/07/12 09:18:16;;;;;;;;;;;;;;;;;;4959331;28;7225;-85
2022/07/12 09:20:43;;;;;;;;;;;;;;;;;;4959378;28;8808;-83
2022/07/12 09:23:10;;;;;;;;;;;;;;;;;;4960747;28;8967;-85
2022/07/12 09:25:37;;;;;;;;;;;;;;;;;;4962526;28;7484;-84
2022/07/12 09:28:04;;;;;;;;;;;;;;;;;;4961825;28;9065;-84
2022/07/12 09:30:30;;;;;;;;;;;;;;;;;;4960090;28;8394;-84
2022/07/12 09:36:17;;;;;;;;;;;;;;;;;;4962616;28;6845;-85
2022/07/12 09:38:48;;;;;;;;;;;;;;;;;;4944596;28;6940;-80
2022/07/12 09:41:18;;;;;;;;;;;;;;;;;;4951740;28;9024;-78
2022/07/12 09:43:45;;;;;;;;;;;;;;;;;;4965074;28;7112;-86
2022/07/12 09:46:10;;;;;;;;;;;;;;;;;;4965927;28;8784;-80
2022/07/12 09:48:37;;;;;;;;;;;;;;;;;;4965604;28;8475;-86
2022/07/12 09:51:06;;;;;;;;;;;;;;;;;;4961289;28;8884;-85
2022/07/12 09:53:43;;;;;;;;;;;;;;;;;;4966762;28;8546;-80
2022/07/12 09:56:10;;;;;;;;;;;;;;;;;;4965132;28;7146;-87
2022/07/12 09:58:43;;;;;;;;;;;;;;;;;;4967724;28;8842;-84
2022/07/12 10:01:10;;;;;;;;;;;;;;;;;;4959801;28;8408;-84
2022/07/12 10:03:36;;;;;;;;;;;;;;;;;;4961755;28;8940;-87
2022/07/12 10:06:02;;;;;;;;;;;;;;;;;;4962507;28;8480;-89
2022/07/12 10:08:29;;;;;;;;;;;;;;;;;;4966343;28;7279;-78
2022/07/12 10:10:55;;;;;;;;;;;;;;;;;;4968580;28;8512;-83
2022/07/12 10:13:21;;;;;;;;;;;;;;;;;;4969830;28;8474;-80
2022/07/12 10:15:49;;;;;;;;;;;;;;;;;;4967995;28;7082;-79
2022/07/12 10:18:16;;;;;;;;;;;;;;;;;;4965425;28;8760;-86
2022/07/12 10:20:43;;;;;;;;;;;;;;;;;;4966088;28;8984;-85
2022/07/12 10:23:27;;;;;;;;;;;;;;;;;;4965645;28;8483;-86
2022/07/12 10:25:53;;;;;;;;;;;;;;;;;;4965899;28;8431;-84
2022/07/12 10:28:19;;;;;;;;;;;;;;;;;;4963421;28;9067;-82
2022/07/12 10:30:47;;;;;;;;;;;;;;;;;;4963868;28;8449;-88
2022/07/12 10:33:17;;;;;;;;;;;;;;;;;;4957540;28;9226;-87
2022/07/12 10:36:01;;;;;;;;;;;;;;;;;;4979930;28;8263;-82
2022/07/12 10:38:27;;;;;;;;;;;;;;;;;;4964537;28;8538;-80
2022/07/12 10:40:53;;;;;;;;;;;;;;;;;;4982404;28;8446;-76
2022/07/12 10:44:04;;;;;;;;;;;;;;;;;;4983627;28;8497;-80
2022/07/12 10:46:15;;;;;;;;;;;;;;;;;;4986106;28;7036;-80
2022/07/12 10:48:42;;;;;;;;;;;;;;;;;;4986506;28;8538;-80
2022/07/12 10:51:20;;;;;;;;;;;;;;;;;;4987611;28;8974;-80
2022/07/12 10:53:48;;;;;;;;;;;;;;;;;;4987232;28;8752;-80
2022/07/12 10:56:17;;;;;;;;;;;;;;;;;;4987684;28;8891;-80
2022/07/12 10:58:55;;;;;;;;;;;;;;;;;;4971845;28;9060;-80
2022/07/12 11:01:23;;;;;;;;;;;;;;;;;;4987686;28;9504;-80
2022/07/12 11:03:50;;;;;;;;;;;;;;;;;;4987328;28;8465;-80
2022/07/12 11:06:17;;;;;;;;;;;;;;;;;;4987927;28;8664;-79
2022/07/12 11:08:47;;;;;;;;;;;;;;;;;;4987490;28;7077;-80
2022/07/12 11:11:13;;;;;;;;;;;;;;;;;;4986703;28;8815;-80
2022/07/12 11:13:38;;;;;;;;;;;;;;;;;;4987395;28;7123;-79
2022/07/12 11:16:04;;;;;;;;;;;;;;;;;;4987580;28;7525;-80
2022/07/12 11:18:30;;;;;;;;;;;;;;;;;;4970789;28;8805;-80
2022/07/12 11:20:57;;;;;;;;;;;;;;;;;;4987404;28;7158;-79
2022/07/12 11:23:27;;;;;;;;;;;;;;;;;;4987250;28;7211;-80
2022/07/12 11:25:56;;;;;;;;;;;;;;;;;;4986285;28;8458;-79
2022/07/12 11:28:23;;;;;;;;;;;;;;;;;;4971150;28;7097;-79
2022/07/12 11:30:50;;;;;;;;;;;;;;;;;;4987242;28;8775;-79
2022/07/12 11:33:15;;;;;;;;;;;;;;;;;;4987019;28;8686;-80
2022/07/12 11:35:44;;;;;;;;;;;;;;;;;;4987071;28;8586;-80
2022/07/12 11:38:10;;;;;;;;;;;;;;;;;;4986938;28;8544;-79
2022/07/12 11:40:35;;;;;;;;;;;;;;;;;;4986790;28;8556;-80
2022/07/12 11:43:02;;;;;;;;;;;;;;;;;;4987019;28;8427;-80
2022/07/12 11:45:33;;;;;;;;;;;;;;;;;;4986704;28;8550;-80
2022/07/12 11:48:00;;;;;;;;;;;;;;;;;;4986091;28;8525;-80
2022/07/12 11:50:25;;;;;;;;;;;;;;;;;;4986209;28;7223;-81
2022/07/12 11:52:51;;;;;;;;;;;;;;;;;;4985060;28;8625;-81
2022/07/12 11:55:17;;;;;;;;;;;;;;;;;;4985402;28;7657;-81
2022/07/12 11:57:43;;;;;;;;;;;;;;;;;;4982370;28;8751;-80
2022/07/12 12:00:15;;;;;;;;;;;;;;;;;;4984763;28;8872;-80
2022/07/12 12:02:41;;;;;;;;;;;;;;;;;;4985968;28;6887;-81
2022/07/12 12:05:07;;;;;;;;;;;;;;;;;;4985490;28;8944;-84
2022/07/12 12:07:33;;;;;;;;;;;;;;;;;;4983434;28;8554;-85
2022/07/12 12:10:15;;;;;;;;;;;;;;;;;;4982597;28;8506;-83
2022/07/12 12:12:43;;;;;;;;;;;;;;;;;;4982513;28;8464;-75
2022/07/12 12:15:11;;;;;;;;;;;;;;;;;;4974105;28;8511;-79
2022/07/12 12:17:37;;;;;;;;;;;;;;;;;;4980329;28;8968;-85
2022/07/12 12:20:10;;;;;;;;;;;;;;;;;;4981326;28;8889;-82
2022/07/12 12:22:37;;;;;;;;;;;;;;;;;;4981226;28;8495;-82
2022/07/12 12:25:12;;;;;;;;;;;;;;;;;;4982051;28;8650;-85
2022/07/12 12:27:50;;;;;;;;;;;;;;;;;;4985872;28;7261;-81
2022/07/12 12:30:20;;;;;;;;;;;;;;;;;;4986598;28;8507;-82
2022/07/12 12:32:48;;;;;;;;;;;;;;;;;;4985995;28;7328;-81
2022/07/12 12:35:16;;;;;;;;;;;;;;;;;;4970145;28;7105;-81
2022/07/12 12:37:49;;;;;;;;;;;;;;;;;;4985841;28;8811;-82
2022/07/12 12:40:19;;;;;;;;;;;;;;;;;;4985236;28;8876;-80
2022/07/12 12:42:46;;;;;;;;;;;;;;;;;;4985683;28;8879;-80
2022/07/12 12:45:19;;;;;;;;;;;;;;;;;;4986189;28;8995;-80
2022/07/12 12:47:55;;;;;;;;;;;;;;;;;;4985912;28;8950;-80
2022/07/12 12:50:40;;;;;;;;;;;;;;;;;;4986153;28;8874;-80
2022/07/12 12:53:06;;;;;;;;;;;;;;;;;;4968546;28;7071;-81
2022/07/12 12:55:32;;;;;;;;;;;;;;;;;;4986224;28;8608;-81
2022/07/12 12:57:58;;;;;;;;;;;;;;;;;;4986012;28;8985;-81
2022/07/12 13:00:24;;;;;;;;;;;;;;;;;;4986057;28;8446;-80
2022/07/12 13:02:49;;;;;;;;;;;;;;;;;;4985763;28;7083;-81
2022/07/12 13:05:15;;;;;;;;;;;;;;;;;;4985290;28;7247;-80
2022/07/12 13:07:40;;;;;;;;;;;;;;;;;;4985933;28;8769;-80
2022/07/12 13:10:06;;;;;;;;;;;;;;;;;;4984514;28;8690;-80
2022/07/12 13:12:32;;;;;;;;;;;;;;;;;;4987694;28;8319;-80
2022/07/12 13:14:57;;;;;;;;;;;;;;;;;;4981696;28;8596;-84
2022/07/12 13:17:22;;;;;;;;;;;;;;;;;;4980584;28;10020;-77
2022/07/12 13:19:51;;;;;;;;;;;;;;;;;;4982575;28;8515;-85
2022/07/12 13:22:16;;;;;;;;;;;;;;;;;;4993796;28;8599;-84
2022/07/12 13:24:42;;;;;;;;;;;;;;;;;;4960915;28;8572;-85
2022/07/12 13:27:07;;;;;;;;;;;;;;;;;;4976228;28;8704;-84
2022/07/12 13:29:33;;;;;;;;;;;;;;;;;;4973471;28;8490;-76
2022/07/12 13:31:58;;;;;;;;;;;;;;;;;;4973522;28;8617;-85
2022/07/12 13:34:24;;;;;;;;;;;;;;;;;;4974176;28;8535;-84
2022/07/12 13:36:51;;;;;;;;;;;;;;;;;;4959607;28;7490;-85
2022/07/12 13:42:01;;;;;;;;;;;;;;;;;;4976380;28;6900;-82
2022/07/12 13:44:26;;;;;;;;;;;;;;;;;;4973785;28;7219;-81
2022/07/12 13:46:52;;;;;;;;;;;;;;;;;;4971791;28;8807;-85
2022/07/12 13:49:17;;;;;;;;;;;;;;;;;;4994333;28;8520;-85
2022/07/12 13:51:43;;;;;;;;;;;;;;;;;;4963144;28;8535;-82
2022/07/12 13:54:08;;;;;;;;;;;;;;;;;;4960891;28;7093;-82
2022/07/12 13:56:34;;;;;;;;;;;;;;;;;;4960625;28;8525;-82
2022/07/12 13:59:00;;;;;;;;;;;;;;;;;;4963499;28;8519;-87
2022/07/12 14:01:25;;;;;;;;;;;;;;;;;;4977560;28;8732;-86
2022/07/12 14:03:51;;;;;;;;;;;;;;;;;;4980312;28;8709;-85
2022/07/12 14:06:16;;;;;;;;;;;;;;;;;;4981936;28;8884;-86
2022/07/12 14:08:42;;;;;;;;;;;;;;;;;;4997011;28;8626;-85
2022/07/12 14:11:08;;;;;;;;;;;;;;;;;;5001618;28;8533;-86
2022/07/12 14:13:34;;;;;;;;;;;;;;;;;;5005078;28;8243;-84
2022/07/12 14:16:03;;;;;;;;;;;;;;;;;;4949508;28;11754;-86
2022/07/12 14:18:29;;;;;;;;;;;;;;;;;;4872427;28;12065;-85
2022/07/12 14:20:54;;;;;;;;;;;;;;;;;;4955007;28;8518;-86
2022/07/12 14:23:20;;;;;;;;;;;;;;;;;;4985452;28;7289;-86
2022/07/12 14:25:46;;;;;;;;;;;;;;;;;;4981079;28;8263;-84
2022/07/12 14:28:11;;;;;;;;;;;;;;;;;;4980188;28;8526;-82
2022/07/12 14:30:37;;;;;;;;;;;;;;;;;;4984351;28;8391;-80
2022/07/12 14:33:06;;;;;;;;;;;;;;;;;;4979944;28;8483;-86
2022/07/12 14:35:31;;;;;;;;;;;;;;;;;;4983656;28;8375;-84
2022/07/12 14:37:57;;;;;;;;;;;;;;;;;;4978020;28;8493;-75
2022/07/12 14:40:22;;;;;;;;;;;;;;;;;;4960277;28;6969;-87
2022/07/12 14:42:48;;;;;;;;;;;;;;;;;;4954749;28;8479;-82
2022/07/12 14:45:14;;;;;;;;;;;;;;;;;;4957115;28;7230;-89
2022/07/12 14:47:39;;;;;;;;;;;;;;;;;;4958213;28;8666;-82
2022/07/12 14:50:07;;;;;;;;;;;;;;;;;;4951681;28;8535;-86
2022/07/12 14:52:33;;;;;;;;;;;;;;;;;;4947412;28;7191;-80
2022/07/12 14:54:58;;;;;;;;;;;;;;;;;;4956760;28;8761;-87
2022/07/12 14:57:24;;;;;;;;;;;;;;;;;;4958374;28;7103;-87
2022/07/12 14:59:49;;;;;;;;;;;;;;;;;;4955660;28;8506;-83
2022/07/12 15:02:16;;;;;;;;;;;;;;;;;;4959620;28;7099;-84
2022/07/12 15:04:42;;;;;;;;;;;;;;;;;;4959880;28;7406;-86
2022/07/12 15:07:07;;;;;;;;;;;;;;;;;;4956369;28;8483;-81
2022/07/12 15:09:33;;;;;;;;;;;;;;;;;;4966489;28;8525;-80
2022/07/12 15:11:59;;;;;;;;;;;;;;;;;;4966651;28;8859;-78
2022/07/12 15:14:25;;;;;;;;;;;;;;;;;;4962079;28;8617;-88
2022/07/12 15:16:51;;;;;;;;;;;;;;;;;;4958401;28;8566;-85
2022/07/12 15:19:17;;;;;;;;;;;;;;;;;;4960002;28;6879;-86
2022/07/12 15:21:43;;;;;;;;;;;;;;;;;;4962913;28;8533;-83
2022/07/12 15:24:09;;;;;;;;;;;;;;;;;;4963751;28;8382;-81
2022/07/12 15:26:40;;;;;;;;;;;;;;;;;;4961520;28;8706;-86
2022/07/12 15:29:06;;;;;;;;;;;;;;;;;;4956974;28;8465;-86
2022/07/12 15:31:35;;;;;;;;;;;;;;;;;;4960463;28;8362;-85
2022/07/12 15:34:01;;;;;;;;;;;;;;;;;;4963258;28;6923;-80
2022/07/12 15:36:30;;;;;;;;;;;;;;;;;;4962133;28;8979;-84
2022/07/12 15:38:55;;;;;;;;;;;;;;;;;;4957141;28;8590;-85
2022/07/12 15:41:21;;;;;;;;;;;;;;;;;;4958376;28;7300;-87
2022/07/12 15:43:46;;;;;;;;;;;;;;;;;;4958157;28;8467;-85
2022/07/12 15:46:12;;;;;;;;;;;;;;;;;;4958380;28;8511;-86
2022/07/12 15:48:39;;;;;;;;;;;;;;;;;;4956806;28;8442;-87
2022/07/12 15:51:05;;;;;;;;;;;;;;;;;;4960499;28;8537;-86
2022/07/12 15:53:32;;;;;;;;;;;;;;;;;;4963026;28;8646;-79
2022/07/12 15:56:05;;;;;;;;;;;;;;;;;;4965476;28;8730;-84
2022/07/12 15:58:32;;;;;;;;;;;;;;;;;;4961034;28;6927;-85
2022/07/12 16:00:58;;;;;;;;;;;;;;;;;;4955960;28;8613;-84
2022/07/12 16:03:27;;;;;;;;;;;;;;;;;;4955693;28;8559;-79
2022/07/12 16:05:53;;;;;;;;;;;;;;;;;;4958610;28;8682;-78
2022/07/12 16:08:19;;;;;;;;;;;;;;;;;;4954701;28;9014;-85
2022/07/12 16:10:46;;;;;;;;;;;;;;;;;;4943781;28;8544;-86
2022/07/12 16:13:12;;;;;;;;;;;;;;;;;;4959027;29;7129;-85
2022/07/12 16:15:37;;;;;;;;;;;;;;;;;;4939858;29;7480;-85
2022/07/12 16:18:04;;;;;;;;;;;;;;;;;;4939127;29;7482;-84
2022/07/12 16:20:31;;;;;;;;;;;;;;;;;;4954593;29;9094;-83
2022/07/12 16:22:56;;;;;;;;;;;;;;;;;;4955102;29;8590;-86
2022/07/12 16:25:21;;;;;;;;;;;;;;;;;;4940896;29;8469;-85
2022/07/12 16:27:47;;;;;;;;;;;;;;;;;;4955876;29;8639;-86
2022/07/12 16:30:12;;;;;;;;;;;;;;;;;;4939948;29;8659;-84
2022/07/12 16:32:39;;;;;;;;;;;;;;;;;;4941703;29;8571;-84
2022/07/12 16:35:05;;;;;;;;;;;;;;;;;;4960689;29;9017;-78
2022/07/12 16:37:31;;;;;;;;;;;;;;;;;;4964946;29;8438;-78
2022/07/12 16:39:56;;;;;;;;;;;;;;;;;;4964164;29;7251;-78
2022/07/12 16:42:22;;;;;;;;;;;;;;;;;;4950613;29;8537;-79
2022/07/12 16:44:47;;;;;;;;;;;;;;;;;;4950851;28;7181;-78
2022/07/12 16:47:13;;;;;;;;;;;;;;;;;;4953980;28;7066;-78
2022/07/12 16:49:38;;;;;;;;;;;;;;;;;;4970764;28;8651;-78
2022/07/12 16:52:04;;;;;;;;;;;;;;;;;;4954378;28;7110;-78
2022/07/12 16:54:31;;;;;;;;;;;;;;;;;;4954881;28;8434;-79
2022/07/12 16:56:57;;;;;;;;;;;;;;;;;;4969933;28;8912;-79
2022/07/12 16:59:23;;;;;;;;;;;;;;;;;;4969987;28;8502;-79
2022/07/12 17:01:48;;;;;;;;;;;;;;;;;;4967266;28;8525;-81
2022/07/12 17:04:14;;;;;;;;;;;;;;;;;;4943013;28;8794;-86
2022/07/12 17:06:39;;;;;;;;;;;;;;;;;;4957979;28;8404;-85
2022/07/12 17:09:05;;;;;;;;;;;;;;;;;;4942351;28;8641;-86
2022/07/12 17:11:30;;;;;;;;;;;;;;;;;;4942495;28;9287;-86